createdAt,value
2023-05-06T00:00:13.150Z,14.53
2023-05-06T00:02:42.463Z,14.54
2023-05-06T00:05:11.697Z,14.49
2023-05-06T00:07:42.540Z,14.40
2023-05-06T00:10:13.468Z,14.43
2023-05-06T00:12:42.400Z,14.46
2023-05-06T00:15:11.895Z,14.39
2023-05-06T00:17:41.046Z,14.35
2023-05-06T00:20:11.243Z,14.32
2023-05-06T00:22:39.988Z,14.26
2023-05-06T00:25:09.394Z,14.22
2023-05-06T00:27:40.171Z,14.23
2023-05-06T00:30:09.863Z,14.20
2023-05-06T00:32:38.790Z,14.13
2023-05-06T00:35:09.489Z,14.24
2023-05-06T00:37:38.763Z,14.15
2023-05-06T00:40:08.770Z,14.17
2023-05-06T00:42:37.929Z,13.89
2023-05-06T00:45:09.485Z,14.20
2023-05-06T00:47:39.145Z,14.21
2023-05-06T00:50:14.042Z,14.21
2023-05-06T00:52:42.755Z,14.21
2023-05-06T00:55:11.797Z,14.14
2023-05-06T00:57:41.850Z,14.16
2023-05-06T01:00:12.945Z,14.11
2023-05-06T01:02:47.163Z,14.16
2023-05-06T01:05:17.629Z,14.10
2023-05-06T01:07:51.259Z,14.13
2023-05-06T01:10:25.662Z,14.14
2023-05-06T01:13:02.994Z,14.14
2023-05-06T01:15:36.223Z,14.09
2023-05-06T01:18:11.066Z,14.14
2023-05-06T01:20:42.391Z,14.17
2023-05-06T01:23:14.597Z,14.10
2023-05-06T01:25:43.389Z,14.06
2023-05-06T01:28:13.472Z,14.00
2023-05-06T01:30:50.883Z,14.00
2023-05-06T01:33:25.070Z,14.03
2023-05-06T01:35:58.098Z,14.00
2023-05-06T01:38:33.802Z,13.98
2023-05-06T01:41:03.391Z,13.96
2023-05-06T01:43:36.527Z,14.00
2023-05-06T01:46:06.296Z,14.01
2023-05-06T01:48:35.862Z,14.02
2023-05-06T01:51:05.196Z,13.97
2023-05-06T01:53:35.265Z,14.03
2023-05-06T01:56:04.269Z,14.00
2023-05-06T01:58:32.838Z,13.98
2023-05-06T02:01:02.210Z,14.00
2023-05-06T02:03:31.232Z,14.02
2023-05-06T02:06:00.251Z,14.06
2023-05-06T02:08:28.790Z,13.67
2023-05-06T02:10:59.237Z,14.06
2023-05-06T02:13:28.096Z,14.08
2023-05-06T02:15:57.125Z,14.06
2023-05-06T02:18:26.068Z,14.01
2023-05-06T02:20:54.702Z,14.02
2023-05-06T02:23:23.513Z,14.02
2023-05-06T02:29:53.398Z,13.99
2023-05-06T02:32:21.860Z,13.98
2023-05-06T02:34:51.919Z,13.97
2023-05-06T02:37:22.348Z,13.98
2023-05-06T02:39:51.110Z,14.01
2023-05-06T02:42:21.417Z,14.07
2023-05-06T02:44:50.021Z,14.06
2023-05-06T02:47:20.474Z,14.00
2023-05-06T02:49:49.358Z,13.99
2023-05-06T02:52:18.447Z,13.98
2023-05-06T02:54:47.309Z,13.98
2023-05-06T02:57:16.189Z,13.95
2023-05-06T02:59:45.341Z,13.91
2023-05-06T03:02:14.057Z,13.86
2023-05-06T03:04:44.476Z,13.80
2023-05-06T03:07:14.176Z,13.77
2023-05-06T03:09:43.372Z,13.71
2023-05-06T03:12:12.416Z,13.69
2023-05-06T03:14:41.478Z,13.68
2023-05-06T03:17:10.318Z,13.64
2023-05-06T03:19:39.346Z,13.69
2023-05-06T03:22:09.625Z,13.62
2023-05-06T03:24:38.334Z,13.61
2023-05-06T03:27:07.064Z,13.61
2023-05-06T03:29:36.170Z,13.60
2023-05-06T03:32:05.239Z,13.59
2023-05-06T03:34:34.148Z,13.63
2023-05-06T03:37:03.398Z,13.62
2023-05-06T03:39:34.393Z,13.67
2023-05-06T03:42:03.146Z,13.61
2023-05-06T03:44:31.799Z,13.59
2023-05-06T03:47:00.406Z,13.55
2023-05-06T03:49:29.385Z,13.65
2023-05-06T03:51:58.003Z,13.67
2023-05-06T03:54:26.883Z,13.72
2023-05-06T03:56:56.916Z,13.64
2023-05-06T03:59:25.951Z,13.62
2023-05-06T04:01:57.251Z,13.64
2023-05-06T04:04:27.587Z,13.71
2023-05-06T04:06:56.708Z,13.73
2023-05-06T04:09:25.818Z,13.72
2023-05-06T04:11:54.603Z,13.70
2023-05-06T04:14:25.010Z,13.70
2023-05-06T04:16:54.262Z,13.72
2023-05-06T04:19:23.190Z,13.79
2023-05-06T04:21:52.351Z,13.87
2023-05-06T04:24:21.740Z,13.87
2023-05-06T04:26:50.759Z,13.89
2023-05-06T04:29:19.428Z,13.94
2023-05-06T04:31:49.844Z,13.93
2023-05-06T04:34:18.396Z,13.97
2023-05-06T04:36:47.990Z,13.99
2023-05-06T04:39:18.431Z,14.01
2023-05-06T04:41:47.244Z,14.06
2023-05-06T04:44:16.092Z,14.12
2023-05-06T04:46:44.777Z,14.16
2023-05-06T04:49:15.554Z,14.21
2023-05-06T04:51:44.737Z,14.26
2023-05-06T04:54:13.693Z,14.37
2023-05-06T04:56:42.574Z,14.45
2023-05-06T04:59:11.157Z,14.52
2023-05-06T05:01:40.306Z,14.60
2023-05-06T05:04:08.926Z,14.67
2023-05-06T05:06:39.215Z,14.74
2023-05-06T05:09:08.110Z,14.82
2023-05-06T05:11:39.190Z,14.89
2023-05-06T05:14:08.784Z,14.87
2023-05-06T05:16:37.607Z,14.93
2023-05-06T05:19:08.917Z,14.98
2023-05-06T05:21:39.605Z,15.07
2023-05-06T05:24:08.442Z,15.10
2023-05-06T05:26:37.097Z,15.08
2023-05-06T05:29:06.851Z,15.24
2023-05-06T05:31:35.695Z,15.29
2023-05-06T05:34:04.464Z,15.39
2023-05-06T05:36:33.157Z,15.43
2023-05-06T05:39:03.203Z,15.47
2023-05-06T05:41:32.233Z,15.43
2023-05-06T05:44:00.883Z,15.52
2023-05-06T05:46:29.969Z,15.51
2023-05-06T05:48:58.646Z,15.66
2023-05-06T05:51:27.634Z,15.60
2023-05-06T05:53:56.726Z,15.64
2023-05-06T05:56:27.738Z,15.79
2023-05-06T05:58:56.565Z,15.72
2023-05-06T06:01:28.005Z,15.89
2023-05-06T06:03:58.234Z,15.92
2023-05-06T06:06:27.802Z,15.87
2023-05-06T06:08:56.470Z,15.93
2023-05-06T06:11:27.116Z,15.97
2023-05-06T06:13:56.189Z,15.97
2023-05-06T06:16:25.329Z,16.06
2023-05-06T06:18:55.233Z,16.18
2023-05-06T06:21:24.416Z,16.08
2023-05-06T06:23:53.593Z,15.95
2023-05-06T06:26:22.323Z,16.02
2023-05-06T06:28:52.511Z,15.91
2023-05-06T06:31:21.743Z,16.17
2023-05-06T06:33:51.090Z,16.20
2023-05-06T06:36:19.821Z,16.17
2023-05-06T06:38:49.215Z,16.15
2023-05-06T06:41:17.782Z,16.29
2023-05-06T06:43:46.793Z,16.30
2023-05-06T06:46:17.340Z,16.50
2023-05-06T06:48:46.436Z,16.68
2023-05-06T06:51:15.137Z,16.69
2023-05-06T06:53:44.231Z,16.95
2023-05-06T06:56:13.844Z,17.08
2023-05-06T06:58:42.933Z,16.91
2023-05-06T07:01:11.857Z,17.03
2023-05-06T07:03:42.683Z,17.18
2023-05-06T07:06:11.397Z,17.48
2023-05-06T07:08:40.778Z,17.51
2023-05-06T07:11:09.773Z,17.42
2023-05-06T07:13:38.377Z,17.25
2023-05-06T07:16:07.774Z,17.42
2023-05-06T07:18:36.753Z,17.48
2023-05-06T07:21:06.897Z,17.81
2023-05-06T07:23:35.521Z,17.61
2023-05-06T07:26:04.687Z,17.76
2023-05-06T07:28:33.212Z,17.65
2023-05-06T07:31:02.118Z,17.70
2023-05-06T07:33:30.746Z,17.86
2023-05-06T07:35:59.669Z,18.12
2023-05-06T07:38:29.601Z,18.15
2023-05-06T07:40:58.370Z,18.39
2023-05-06T07:43:27.007Z,18.32
2023-05-06T07:46:02.970Z,18.57
2023-05-06T07:48:32.048Z,18.70
2023-05-06T07:51:01.132Z,18.79
2023-05-06T07:53:31.637Z,18.66
2023-05-06T07:56:02.511Z,18.11
2023-05-06T07:58:31.681Z,18.20
2023-05-06T08:01:00.379Z,18.34
2023-05-06T08:03:29.150Z,18.15
2023-05-06T08:05:58.631Z,18.21
2023-05-06T08:08:28.846Z,18.19
2023-05-06T08:10:59.689Z,18.00
2023-05-06T08:13:29.115Z,18.06
2023-05-06T08:15:58.125Z,18.09
2023-05-06T08:18:26.782Z,18.12
2023-05-06T08:20:55.688Z,17.92
2023-05-06T08:23:24.283Z,18.08
2023-05-06T08:25:53.413Z,18.15
2023-05-06T08:28:25.208Z,18.72
2023-05-06T08:30:53.980Z,18.68
2023-05-06T08:33:25.032Z,18.61
2023-05-06T08:35:53.739Z,18.89
2023-05-06T08:38:22.805Z,18.97
2023-05-06T08:40:54.780Z,18.07
2023-05-06T08:43:28.039Z,18.56
2023-05-06T08:45:57.695Z,18.51
2023-05-06T08:48:26.748Z,19.26
2023-05-06T08:50:56.393Z,18.43
2023-05-06T08:53:26.106Z,18.91
2023-05-06T08:55:56.165Z,19.00
2023-05-06T08:58:28.097Z,19.13
2023-05-06T09:00:57.231Z,19.15
2023-05-06T09:03:26.515Z,18.99
2023-05-06T09:05:55.432Z,18.92
2023-05-06T09:08:24.470Z,19.45
2023-05-06T09:10:53.292Z,19.74
2023-05-06T09:13:22.256Z,19.44
2023-05-06T09:15:55.914Z,19.58
2023-05-06T09:18:24.916Z,19.68
2023-05-06T09:20:54.353Z,19.74
2023-05-06T09:23:24.070Z,20.07
2023-05-06T09:25:52.632Z,20.11
2023-05-06T09:28:21.901Z,19.97
2023-05-06T09:30:52.789Z,19.97
2023-05-06T09:33:23.159Z,19.96
2023-05-06T09:35:51.893Z,19.56
2023-05-06T09:38:21.942Z,19.37
2023-05-06T09:40:50.727Z,19.35
2023-05-06T09:43:19.854Z,19.50
2023-05-06T09:45:50.025Z,19.30
2023-05-06T09:48:20.345Z,18.92
2023-05-06T09:50:50.576Z,19.05
2023-05-06T09:53:20.008Z,19.16
2023-05-06T09:55:48.873Z,19.47
2023-05-06T09:58:18.017Z,19.57
2023-05-06T10:00:46.860Z,19.86
2023-05-06T10:03:15.974Z,19.99
2023-05-06T10:05:46.823Z,20.01
2023-05-06T10:08:18.951Z,19.77
2023-05-06T10:10:48.589Z,19.91
2023-05-06T10:13:17.948Z,20.12
2023-05-06T10:15:48.521Z,20.40
2023-05-06T10:18:19.130Z,19.99
2023-05-06T10:20:51.888Z,19.92
2023-05-06T10:23:26.113Z,20.12
2023-05-06T10:25:58.259Z,20.19
2023-05-06T10:28:31.291Z,20.25
2023-05-06T10:31:00.868Z,20.31
2023-05-06T10:33:30.281Z,20.01
2023-05-06T10:36:11.439Z,20.02
2023-05-06T10:38:44.409Z,19.96
2023-05-06T10:41:14.695Z,19.77
2023-05-06T10:43:45.549Z,19.57
2023-05-06T10:46:15.474Z,19.47
2023-05-06T10:49:17.659Z,19.83
2023-05-06T10:51:49.504Z,20.11
2023-05-06T10:54:25.161Z,20.05
2023-05-06T10:57:11.007Z,20.00
2023-05-06T10:59:46.976Z,19.55
2023-05-06T11:02:20.359Z,19.58
2023-05-06T11:04:54.246Z,19.84
2023-05-06T11:07:27.881Z,19.89
2023-05-06T11:09:58.513Z,19.74
2023-05-06T11:12:49.257Z,19.62
2023-05-06T11:15:40.225Z,19.55
2023-05-06T11:18:44.993Z,19.77
2023-05-06T11:21:41.827Z,19.93
2023-05-06T11:24:13.596Z,20.03
2023-05-06T11:26:43.674Z,20.12
2023-05-06T11:29:12.864Z,20.57
2023-05-06T11:31:43.968Z,20.87
2023-05-06T11:34:15.866Z,20.96
2023-05-06T11:36:48.826Z,21.14
2023-05-06T11:39:19.600Z,21.15
2023-05-06T11:41:48.618Z,21.05
2023-05-06T11:44:28.573Z,20.96
2023-05-06T11:47:01.733Z,21.80
2023-05-06T11:49:30.469Z,22.51
2023-05-06T11:51:59.437Z,22.61
2023-05-06T11:54:29.753Z,22.71
2023-05-06T11:56:58.859Z,22.05
2023-05-06T11:59:32.318Z,22.38
2023-05-06T12:02:02.547Z,22.67
2023-05-06T12:04:39.101Z,22.94
2023-05-06T12:07:08.961Z,23.08
2023-05-06T12:09:40.130Z,22.88
2023-05-06T12:12:09.766Z,22.83
2023-05-06T12:14:39.053Z,22.27
2023-05-06T12:17:08.190Z,22.63
2023-05-06T12:19:40.283Z,22.36
2023-05-06T12:22:21.965Z,22.20
2023-05-06T12:24:52.102Z,22.56
2023-05-06T12:27:33.646Z,22.48
2023-05-06T12:30:04.913Z,22.20
2023-05-06T12:32:34.575Z,22.17
2023-05-06T12:35:07.742Z,22.56
2023-05-06T12:37:36.627Z,23.20
2023-05-06T12:40:08.273Z,23.75
2023-05-06T12:42:37.044Z,24.18
2023-05-06T12:45:15.780Z,23.72
2023-05-06T12:47:54.442Z,24.14
2023-05-06T12:50:34.246Z,23.58
2023-05-06T12:53:03.229Z,22.82
2023-05-06T12:55:34.427Z,22.64
2023-05-06T12:58:03.402Z,22.75
2023-05-06T13:00:32.254Z,22.75
2023-05-06T13:03:01.864Z,22.96
2023-05-06T13:05:30.809Z,22.92
2023-05-06T13:07:59.774Z,23.48
2023-05-06T13:10:28.812Z,23.76
2023-05-06T13:12:59.362Z,24.01
2023-05-06T13:15:28.927Z,24.07
2023-05-06T13:17:57.711Z,24.23
2023-05-06T13:20:27.094Z,23.90
2023-05-06T13:22:55.847Z,23.87
2023-05-06T13:25:25.030Z,23.55
2023-05-06T13:27:54.455Z,23.23
2023-05-06T13:30:24.725Z,23.00
2023-05-06T13:32:53.452Z,22.66
2023-05-06T13:35:22.315Z,22.01
2023-05-06T13:37:51.386Z,21.73
2023-05-06T13:40:20.526Z,21.72
2023-05-06T13:42:49.969Z,21.43
2023-05-06T13:45:18.727Z,21.35
2023-05-06T13:47:48.995Z,21.01
2023-05-06T13:50:17.765Z,20.71
2023-05-06T13:52:47.044Z,20.80
2023-05-06T13:55:19.222Z,21.20
2023-05-06T13:57:48.633Z,21.44
2023-05-06T14:00:19.049Z,21.39
2023-05-06T14:02:49.407Z,21.30
2023-05-06T14:05:18.353Z,21.27
2023-05-06T14:07:47.085Z,21.16
2023-05-06T14:10:16.447Z,20.94
2023-05-06T14:12:45.248Z,20.91
2023-05-06T14:15:15.140Z,20.69
2023-05-06T14:17:44.486Z,20.48
2023-05-06T14:20:15.124Z,20.44
2023-05-06T14:22:44.039Z,20.46
2023-05-06T14:25:13.130Z,20.45
2023-05-06T14:27:42.222Z,20.40
2023-05-06T14:30:12.094Z,20.39
2023-05-06T14:32:41.263Z,20.38
2023-05-06T14:35:11.378Z,20.44
2023-05-06T14:37:41.991Z,20.50
2023-05-06T14:40:11.597Z,20.58
2023-05-06T14:42:41.585Z,20.68
2023-05-06T14:45:11.397Z,20.54
2023-05-06T14:47:41.018Z,20.46
2023-05-06T14:50:10.987Z,20.52
2023-05-06T14:52:42.361Z,20.46
2023-05-06T14:55:12.706Z,20.07
2023-05-06T14:57:41.311Z,19.96
2023-05-06T15:00:15.083Z,20.15
2023-05-06T15:02:44.231Z,20.28
2023-05-06T15:05:13.829Z,20.34
2023-05-06T15:07:44.368Z,20.39
2023-05-06T15:10:13.110Z,20.52
2023-05-06T15:12:42.265Z,20.64
2023-05-06T15:15:11.851Z,20.63
2023-05-06T15:17:42.012Z,20.48
2023-05-06T15:20:11.638Z,20.60
2023-05-06T15:22:40.859Z,20.66
2023-05-06T15:25:19.471Z,20.76
2023-05-06T15:27:54.952Z,20.80
2023-05-06T15:30:24.022Z,20.72
2023-05-06T15:32:52.666Z,20.54
2023-05-06T15:35:21.945Z,20.44
2023-05-06T15:37:51.096Z,20.52
2023-05-06T15:40:25.632Z,20.56
2023-05-06T15:42:54.638Z,20.60
2023-05-06T15:45:23.779Z,20.56
2023-05-06T15:47:54.595Z,20.45
2023-05-06T15:50:32.935Z,20.41
2023-05-06T15:53:03.298Z,20.55
2023-05-06T15:55:41.445Z,20.75
2023-05-06T15:58:14.100Z,20.84
2023-05-06T16:00:43.251Z,20.81
2023-05-06T16:03:14.977Z,20.89
2023-05-06T16:05:44.056Z,21.08
2023-05-06T16:08:12.865Z,21.29
2023-05-06T16:10:43.546Z,21.22
2023-05-06T16:13:12.019Z,21.47
2023-05-06T16:15:40.956Z,21.63
2023-05-06T16:18:09.889Z,21.67
2023-05-06T16:20:39.704Z,21.64
2023-05-06T16:23:08.209Z,21.54
2023-05-06T16:25:38.607Z,21.57
2023-05-06T16:28:10.224Z,21.62
2023-05-06T16:30:40.757Z,21.57
2023-05-06T16:33:10.063Z,21.37
2023-05-06T16:35:38.918Z,21.20
2023-05-06T16:38:07.765Z,21.02
2023-05-06T16:40:42.847Z,20.80
2023-05-06T16:43:12.850Z,20.85
2023-05-06T16:45:45.754Z,20.93
2023-05-06T16:48:14.843Z,21.00
2023-05-06T16:50:44.181Z,21.12
2023-05-06T16:53:13.048Z,21.05
2023-05-06T16:55:41.791Z,21.05
2023-05-06T16:58:10.335Z,20.96
2023-05-06T17:00:41.164Z,20.80
2023-05-06T17:03:10.377Z,20.64
2023-05-06T17:05:39.747Z,20.51
2023-05-06T17:08:08.718Z,20.42
2023-05-06T17:10:40.202Z,20.27
2023-05-06T17:13:11.182Z,20.26
2023-05-06T17:15:45.034Z,20.18
2023-05-06T17:18:13.732Z,19.97
2023-05-06T17:20:54.564Z,19.87
2023-05-06T17:23:24.583Z,19.67
2023-05-06T17:25:53.301Z,19.29
2023-05-06T17:28:22.105Z,18.97
2023-05-06T17:30:52.702Z,18.78
2023-05-06T17:33:22.205Z,18.65
2023-05-06T17:35:51.186Z,18.42
2023-05-06T17:38:20.169Z,18.27
2023-05-06T17:40:48.780Z,18.16
2023-05-06T17:43:17.880Z,18.04
2023-05-06T17:45:47.104Z,17.96
2023-05-06T17:48:17.750Z,17.83
2023-05-06T17:50:46.286Z,17.78
2023-05-06T17:53:15.571Z,17.68
2023-05-06T17:55:44.486Z,17.55
2023-05-06T17:58:13.440Z,17.38
2023-05-06T18:00:43.218Z,17.30
2023-05-06T18:03:12.796Z,17.20
2023-05-06T18:05:43.093Z,17.09
2023-05-06T18:08:12.209Z,16.97
2023-05-06T18:10:42.432Z,16.85
2023-05-06T18:13:11.786Z,16.75
2023-05-06T18:15:40.734Z,16.66
2023-05-06T18:18:09.153Z,16.56
2023-05-06T18:20:42.322Z,16.50
2023-05-06T18:23:12.524Z,16.41
2023-05-06T18:25:41.515Z,16.33
2023-05-06T18:28:10.842Z,16.25
2023-05-06T18:30:40.183Z,16.20
2023-05-06T18:33:09.656Z,16.12
2023-05-06T18:35:39.628Z,15.89
2023-05-06T18:38:08.790Z,15.75
2023-05-06T18:40:38.859Z,15.64
2023-05-06T18:43:09.049Z,15.56
2023-05-06T18:45:38.256Z,15.46
2023-05-06T18:48:08.721Z,15.50
2023-05-06T18:50:37.814Z,15.51
2023-05-06T18:53:07.490Z,15.51
2023-05-06T18:55:37.412Z,15.50
2023-05-06T18:58:07.430Z,15.51
2023-05-06T19:00:36.619Z,15.47
2023-05-06T19:03:06.016Z,15.46
2023-05-06T19:05:34.557Z,15.49
2023-05-06T19:08:05.360Z,15.51
2023-05-06T19:10:35.450Z,15.55
2023-05-06T19:13:05.528Z,15.62
2023-05-06T19:15:36.112Z,15.67
2023-05-06T19:18:05.558Z,15.73
2023-05-06T19:20:35.570Z,15.73
2023-05-06T19:23:05.176Z,15.68
2023-05-06T19:25:36.909Z,15.62
2023-05-06T19:28:06.397Z,15.44
2023-05-06T19:30:37.421Z,15.42
2023-05-06T19:33:06.958Z,15.32
2023-05-06T19:35:38.385Z,15.27
2023-05-06T19:38:08.393Z,15.24
2023-05-06T19:40:37.218Z,15.22
2023-05-06T19:43:06.525Z,15.12
2023-05-06T19:45:36.893Z,15.06
2023-05-06T19:48:08.947Z,14.96
2023-05-06T19:50:38.230Z,14.87
2023-05-06T19:53:08.053Z,14.68
2023-05-06T19:55:37.651Z,14.53
2023-05-06T19:58:06.464Z,14.43
2023-05-06T20:00:36.830Z,14.30
2023-05-06T20:03:06.377Z,14.13
2023-05-06T20:05:35.319Z,14.08
2023-05-06T20:08:04.389Z,14.05
2023-05-06T20:10:35.447Z,14.05
2023-05-06T20:13:04.315Z,13.96
2023-05-06T20:15:33.716Z,13.92
2023-05-06T20:18:03.778Z,13.86
2023-05-06T20:20:36.245Z,13.98
2023-05-06T20:23:05.404Z,14.00
2023-05-06T20:25:37.137Z,13.96
2023-05-06T20:28:06.880Z,13.92
2023-05-06T20:30:35.882Z,13.88
2023-05-06T20:33:06.410Z,13.80
2023-05-06T20:35:38.519Z,13.75
2023-05-06T20:38:09.569Z,13.68
2023-05-06T20:40:38.259Z,13.57
2023-05-06T20:43:07.117Z,13.52
2023-05-06T20:45:35.969Z,13.51
2023-05-06T20:48:06.692Z,13.52
2023-05-06T20:50:35.263Z,13.42
2023-05-06T20:53:04.287Z,13.48
2023-05-06T20:55:33.154Z,13.42
2023-05-06T20:58:02.015Z,13.40
2023-05-06T21:00:31.625Z,13.32
2023-05-06T21:03:01.197Z,13.27
2023-05-06T21:05:31.855Z,13.24
2023-05-06T21:08:00.488Z,13.19
2023-05-06T21:10:29.207Z,13.18
2023-05-06T21:12:58.090Z,13.12
2023-05-06T21:15:27.262Z,13.01
2023-05-06T21:17:56.480Z,12.85
2023-05-06T21:20:25.307Z,12.79
2023-05-06T21:22:55.881Z,12.76
2023-05-06T21:25:25.185Z,12.73
2023-05-06T21:27:53.644Z,12.72
2023-05-06T21:30:23.517Z,12.70
2023-05-06T21:32:54.469Z,12.70
2023-05-06T21:35:25.150Z,12.68
2023-05-06T21:37:54.924Z,12.65
2023-05-06T21:40:23.688Z,12.59
2023-05-06T21:42:52.610Z,12.59
2023-05-06T21:45:22.422Z,12.56
2023-05-06T21:47:51.465Z,12.50
2023-05-06T21:50:20.327Z,12.40
2023-05-06T21:52:49.305Z,12.35
2023-05-06T21:55:19.364Z,12.33
2023-05-06T21:57:48.194Z,12.30
2023-05-06T22:00:17.465Z,12.27
2023-05-06T22:02:46.448Z,12.19
2023-05-06T22:05:15.118Z,12.08
2023-05-06T22:07:44.214Z,12.04
2023-05-06T22:10:13.710Z,12.00
2023-05-06T22:12:43.692Z,11.98
2023-05-06T22:15:14.931Z,11.98
2023-05-06T22:17:44.197Z,11.96
2023-05-06T22:20:13.770Z,11.96
2023-05-06T22:22:42.532Z,11.93
2023-05-06T22:25:12.146Z,11.88
2023-05-06T22:27:41.139Z,11.88
2023-05-06T22:30:12.734Z,11.85
2023-05-06T22:32:41.623Z,11.80
2023-05-06T22:35:11.299Z,11.76
2023-05-06T22:37:40.592Z,11.73
2023-05-06T22:40:10.349Z,11.67
2023-05-06T22:42:40.014Z,11.67
2023-05-06T22:45:11.978Z,11.65
2023-05-06T22:47:41.095Z,11.61
2023-05-06T22:50:10.518Z,11.61
2023-05-06T22:52:39.659Z,11.58
2023-05-06T22:55:10.591Z,11.57
2023-05-06T22:57:39.427Z,11.56
2023-05-06T23:00:12.785Z,11.54
2023-05-06T23:02:45.071Z,11.49
2023-05-06T23:05:13.880Z,11.46
2023-05-06T23:07:42.517Z,11.43
2023-05-06T23:10:11.788Z,11.40
2023-05-06T23:12:41.396Z,11.34
2023-05-06T23:15:12.576Z,11.30
2023-05-06T23:17:41.975Z,11.31
2023-05-06T23:20:12.985Z,11.29
2023-05-06T23:22:41.821Z,11.26
2023-05-06T23:25:12.108Z,11.22
2023-05-06T23:27:41.450Z,11.23
2023-05-06T23:30:12.949Z,11.24
2023-05-06T23:32:41.648Z,11.20
2023-05-06T23:35:11.336Z,11.18
2023-05-06T23:37:40.074Z,11.15
2023-05-06T23:40:11.378Z,11.11
2023-05-06T23:42:39.965Z,11.08
2023-05-06T23:45:12.085Z,11.06
2023-05-06T23:47:40.937Z,11.05
2023-05-06T23:50:10.243Z,11.04
2023-05-06T23:52:39.526Z,11.04
2023-05-06T23:55:09.649Z,11.04
2023-05-06T23:57:38.693Z,11.04
